Time;durP1;ratioP1;P1;durP2;ratioP2;P2;SDS_P1;SDS_P2;PMS_P1;PMS_P2;Temp;Humidity;BMP_temperature;BMP_pressure;BME280_temperature;BME280_humidity;BME280_pressure;Samples;Min_cycle;Max_cycle;Signal;HPM_P1;HPM_P2
2022/12/28 00:01:29;;;;;;;4.88;3.72;;;5.90;99.90;;;;;;5069965;28;20055;-68
2022/12/28 00:03:58;;;;;;;13.35;3.88;;;5.90;99.90;;;;;;5071943;28;20131;-68
2022/12/28 00:06:25;;;;;;;8.25;3.40;;;5.90;99.90;;;;;;5071325;28;20055;-70
2022/12/28 00:08:55;;;;;;;7.65;3.58;;;5.90;99.90;;;;;;5071145;28;20059;-68
2022/12/28 00:11:22;;;;;;;11.05;3.33;;;5.90;99.90;;;;;;5071054;28;20051;-71
2022/12/28 00:13:48;;;;;;;6.22;3.65;;;5.80;99.90;;;;;;5046201;28;20095;-68
2022/12/28 00:16:23;;;;;;;8.95;3.30;;;5.80;99.90;;;;;;5050862;28;20072;-69
2022/12/28 00:18:49;;;;;;;6.97;3.70;;;5.80;99.90;;;;;;5052595;28;20037;-69
2022/12/28 00:21:14;;;;;;;6.63;4.25;;;5.80;99.90;;;;;;5052523;28;20493;-68
2022/12/28 00:23:40;;;;;;;7.82;3.63;;;5.80;99.90;;;;;;5052388;28;20048;-68
2022/12/28 00:26:12;;;;;;;9.27;3.35;;;5.80;99.90;;;;;;5051976;28;20087;-68
2022/12/28 00:28:38;;;;;;;;;;;5.80;99.90;;;;;;5052951;28;20484;-70
2022/12/28 00:31:04;;;;;;;7.40;3.75;;;5.80;99.90;;;;;;5052149;28;20020;-69
2022/12/28 00:33:30;;;;;;;7.47;3.70;;;5.70;99.90;;;;;;5051134;28;20041;-69
2022/12/28 00:35:57;;;;;;;11.35;4.05;;;5.80;99.90;;;;;;5054686;28;20033;-69
2022/12/28 00:38:23;;;;;;;10.23;4.38;;;5.70;99.90;;;;;;5065416;28;20123;-69
2022/12/28 00:40:49;;;;;;;4.80;3.38;;;5.70;99.90;;;;;;5063842;28;20123;-69
2022/12/28 00:43:15;;;;;;;5.53;3.85;;;5.70;99.90;;;;;;5067467;28;20433;-69
2022/12/28 00:45:44;;;;;;;8.25;3.63;;;5.80;99.90;;;;;;5061851;28;20110;-69
2022/12/28 00:48:10;;;;;;;7.68;3.28;;;5.80;99.90;;;;;;5071815;28;20055;-69
2022/12/28 00:50:36;;;;;;;12.55;3.50;;;5.70;99.90;;;;;;5071512;28;20048;-68
2022/12/28 00:53:01;;;;;;;8.70;3.67;;;5.70;99.90;;;;;;5071866;28;20064;-68
2022/12/28 00:55:27;;;;;;;9.55;3.72;;;5.70;99.90;;;;;;5071104;28;20049;-68
2022/12/28 00:57:52;;;;;;;5.25;3.60;;;5.70;99.90;;;;;;5071821;28;20032;-69
2022/12/28 01:00:18;;;;;;;7.88;3.97;;;5.70;99.90;;;;;;5071470;28;20166;-68
2022/12/28 01:02:43;;;;;;;6.65;3.80;;;5.70;99.90;;;;;;5055641;28;20044;-69
2022/12/28 01:05:09;;;;;;;4.80;3.33;;;5.70;99.90;;;;;;5050708;28;20192;-68
2022/12/28 01:07:35;;;;;;;7.78;3.65;;;5.70;99.90;;;;;;5051737;28;20045;-69
2022/12/28 01:10:00;;;;;;;7.80;3.75;;;5.70;99.90;;;;;;5049937;28;20041;-68
2022/12/28 01:12:27;;;;;;;9.65;3.75;;;5.70;99.90;;;;;;5051671;28;20028;-69
2022/12/28 01:14:53;;;;;;;8.90;3.92;;;5.70;99.90;;;;;;5050571;28;20477;-69
2022/12/28 01:17:18;;;;;;;7.07;3.88;;;5.70;99.90;;;;;;5051655;28;20090;-68
2022/12/28 01:19:44;;;;;;;8.43;3.90;;;5.70;99.90;;;;;;5049818;28;20047;-68
2022/12/28 01:22:10;;;;;;;4.68;3.60;;;5.70;99.90;;;;;;5051499;28;20449;-68
2022/12/28 01:24:36;;;;;;;7.63;3.60;;;5.80;99.90;;;;;;5050346;28;20497;-69
2022/12/28 01:27:02;;;;;;;5.60;3.70;;;5.80;99.90;;;;;;5049889;28;20044;-68
2022/12/28 01:29:27;;;;;;;14.25;4.43;;;5.70;99.90;;;;;;5051330;28;20037;-70
2022/12/28 01:31:53;;;;;;;7.85;3.72;;;5.80;99.90;;;;;;5050902;28;20421;-69
2022/12/28 01:34:18;;;;;;;10.80;3.45;;;5.80;99.90;;;;;;5048576;28;20048;-68
2022/12/28 01:36:44;;;;;;;10.63;4.30;;;5.70;99.90;;;;;;5051108;28;20037;-68
2022/12/28 01:39:09;;;;;;;8.30;3.35;;;5.80;99.90;;;;;;5051177;28;20113;-69
2022/12/28 01:41:37;;;;;;;10.30;4.43;;;5.60;99.90;;;;;;5049398;28;20098;-69
2022/12/28 01:44:02;;;;;;;8.63;4.25;;;5.80;99.90;;;;;;5050148;28;20051;-68
2022/12/28 01:46:42;;;;;;;5.78;3.53;;;5.80;99.90;;;;;;5049704;28;20041;-69
2022/12/28 01:49:35;;;;;;;7.50;4.32;;;5.80;99.90;;;;;;5050848;28;20393;-69
2022/12/28 01:52:10;;;;;;;8.68;3.88;;;5.80;99.90;;;;;;5050903;28;20127;-69
2022/12/28 01:54:53;;;;;;;5.60;3.20;;;5.80;99.90;;;;;;5048888;28;20617;-69
2022/12/28 01:57:20;;;;;;;;;;;5.80;99.90;;;;;;5051290;28;20046;-68
2022/12/28 01:59:51;;;;;;;7.70;3.45;;;5.80;99.90;;;;;;5049511;28;19917;-70
2022/12/28 02:02:16;;;;;;;4.13;3.70;;;5.90;99.90;;;;;;5050981;28;20397;-69
2022/12/28 02:04:45;;;;;;;8.20;3.65;;;5.90;99.90;;;;;;5050152;28;20037;-69
2022/12/28 02:07:14;;;;;;;9.63;4.45;;;5.90;99.90;;;;;;5050310;28;20547;-69
2022/12/28 02:09:42;;;;;;;10.63;4.10;;;5.90;99.90;;;;;;5050537;28;20128;-69
2022/12/28 02:12:12;;;;;;;7.05;3.92;;;6.00;99.90;;;;;;5049166;28;20056;-68
2022/12/28 02:14:39;;;;;;;11.05;4.10;;;6.00;99.90;;;;;;5050179;28;20068;-69
2022/12/28 02:17:07;;;;;;;6.95;3.80;;;6.00;99.90;;;;;;5050771;28;20052;-69
2022/12/28 02:19:43;;;;;;;8.32;4.10;;;6.00;99.90;;;;;;5050526;28;20052;-68
2022/12/28 02:22:53;;;;;;;7.57;4.03;;;6.00;99.90;;;;;;5050154;28;20041;-69
2022/12/28 02:25:24;;;;;;;7.75;4.05;;;6.10;99.90;;;;;;5040366;28;20045;-70
2022/12/28 02:28:15;;;;;;;8.93;3.70;;;6.10;99.90;;;;;;5049753;28;20045;-68
2022/12/28 02:30:58;;;;;;;4.95;3.60;;;6.10;99.90;;;;;;5046438;28;21041;-69
2022/12/28 02:33:38;;;;;;;5.00;3.30;;;6.10;99.90;;;;;;5061676;28;20040;-68
2022/12/28 02:36:15;;;;;;;5.30;3.95;;;6.10;99.90;;;;;;5063853;28;20036;-68
2022/12/28 02:38:51;;;;;;;7.03;4.60;;;6.10;99.90;;;;;;5070527;28;20040;-69
2022/12/28 02:41:20;;;;;;;6.80;3.70;;;6.10;99.90;;;;;;5070594;28;20074;-70
2022/12/28 02:43:46;;;;;;;7.22;4.80;;;6.10;99.90;;;;;;5069675;28;20043;-68
2022/12/28 02:52:28;;;;;;;7.32;4.05;;;6.10;99.90;;;;;;5072694;28;20052;-69
2022/12/28 02:58:53;;;;;;;4.65;3.63;;;6.10;99.90;;;;;;5074267;28;20331;-68
2022/12/28 03:02:11;;;;;;;7.90;4.18;;;6.10;99.90;;;;;;5074133;28;20032;-69
2022/12/28 03:04:40;;;;;;;8.40;4.35;;;6.10;99.90;;;;;;4974943;28;20673;-69
2022/12/28 03:10:27;;;;;;;10.32;4.35;;;6.20;99.90;;;;;;4975789;28;20467;-70
2022/12/28 03:13:03;;;;;;;9.02;5.47;;;6.20;99.90;;;;;;4992022;28;20077;-70
2022/12/28 03:15:36;;;;;;;10.98;4.65;;;6.20;99.90;;;;;;4991255;28;20120;-70
2022/12/28 03:32:02;;;;;;;6.90;4.65;;;6.30;99.90;;;;;;4971886;28;20055;-69
2022/12/28 03:34:28;;;;;;;7.32;4.03;;;6.30;99.90;;;;;;4971295;28;20392;-68
2022/12/28 03:37:17;;;;;;;7.35;4.90;;;6.30;99.90;;;;;;4972043;28;20047;-68
2022/12/28 03:40:07;;;;;;;6.25;4.05;;;6.30;99.90;;;;;;4994906;28;20175;-68
2022/12/28 03:45:36;;;;;;;7.13;4.15;;;6.40;99.90;;;;;;5050950;28;20053;-68
2022/12/28 03:48:03;;;;;;;8.30;4.00;;;6.40;99.90;;;;;;5051715;28;20087;-70
2022/12/28 03:50:33;;;;;;;6.63;4.65;;;6.50;99.90;;;;;;5051465;28;20132;-71
2022/12/28 03:52:59;;;;;;;8.02;4.50;;;6.50;99.90;;;;;;5051969;28;20476;-70
2022/12/28 03:55:25;;;;;;;7.25;3.97;;;6.50;99.90;;;;;;5051904;28;20077;-71
2022/12/28 03:57:50;;;;;;;6.35;3.92;;;6.50;99.90;;;;;;5051840;28;20131;-69
2022/12/28 04:00:16;;;;;;;6.70;4.28;;;6.50;99.90;;;;;;5052695;28;20103;-68
2022/12/28 04:02:42;;;;;;;6.03;4.50;;;6.50;99.90;;;;;;5053086;28;20129;-68
2022/12/28 04:05:07;;;;;;;6.88;4.28;;;6.50;99.90;;;;;;5051799;28;20086;-69
2022/12/28 04:07:33;;;;;;;5.97;4.30;;;6.60;99.90;;;;;;5051622;28;20119;-69
2022/12/28 04:09:59;;;;;;;9.55;4.32;;;6.60;99.90;;;;;;5052397;28;20041;-68
2022/12/28 04:12:24;;;;;;;4.53;3.85;;;6.60;99.90;;;;;;5051183;28;20052;-70
2022/12/28 04:14:50;;;;;;;4.03;3.63;;;6.60;99.90;;;;;;5052002;28;20048;-69
2022/12/28 04:17:15;;;;;;;5.30;3.45;;;6.60;99.90;;;;;;5052782;28;20045;-70
2022/12/28 04:19:41;;;;;;;4.72;3.72;;;6.60;99.90;;;;;;5052530;28;20108;-69
2022/12/28 04:22:06;;;;;;;6.10;3.80;;;6.60;99.90;;;;;;5050951;28;20474;-68
2022/12/28 04:24:32;;;;;;;4.70;3.85;;;6.60;99.90;;;;;;5051844;28;20476;-68
2022/12/28 04:26:57;;;;;;;7.32;3.53;;;6.60;99.90;;;;;;5052564;28;20448;-69
2022/12/28 04:29:23;;;;;;;5.03;3.85;;;6.70;99.90;;;;;;5052439;28;20049;-69
2022/12/28 04:31:48;;;;;;;4.43;3.60;;;6.60;99.90;;;;;;5052258;28;20037;-68
2022/12/28 04:34:14;;;;;;;5.80;4.00;;;6.70;99.90;;;;;;5051742;28;20036;-68
2022/12/28 04:36:41;;;;;;;5.55;3.17;;;6.70;99.90;;;;;;5052233;28;20505;-67
2022/12/28 04:39:07;;;;;;;8.75;3.45;;;6.70;99.90;;;;;;5052383;28;20037;-68
2022/12/28 04:41:32;;;;;;;4.10;3.10;;;6.70;99.90;;;;;;5052087;28;20040;-69
2022/12/28 04:43:58;;;;;;;4.32;3.38;;;6.70;99.90;;;;;;5051186;28;20041;-68
2022/12/28 04:46:24;;;;;;;4.18;3.42;;;6.70;99.90;;;;;;5052207;28;20040;-69
2022/12/28 04:48:50;;;;;;;8.25;3.10;;;6.70;99.90;;;;;;5051958;28;20041;-69
2022/12/28 04:51:22;;;;;;;4.35;3.38;;;6.70;99.90;;;;;;5052005;28;20409;-68
2022/12/28 04:53:47;;;;;;;4.30;3.10;;;6.70;99.90;;;;;;5050986;28;20446;-70
2022/12/28 04:56:15;;;;;;;3.55;2.63;;;6.80;99.90;;;;;;5051827;28;20098;-69
2022/12/28 04:58:40;;;;;;;6.05;3.13;;;6.80;99.90;;;;;;5050524;28;20041;-68
2022/12/28 05:01:13;;;;;;;6.78;4.15;;;6.80;99.90;;;;;;5050395;28;20048;-69
2022/12/28 05:03:39;;;;;;;;;;;6.80;99.90;;;;;;5052075;28;20056;-68
2022/12/28 05:06:09;;;;;;;3.92;3.03;;;6.90;99.90;;;;;;5051135;28;19956;-69
2022/12/28 05:08:35;;;;;;;3.85;3.40;;;6.90;99.90;;;;;;5050877;28;20448;-68
2022/12/28 05:11:06;;;;;;;3.92;3.20;;;6.90;99.90;;;;;;5051547;28;20041;-69
2022/12/28 05:13:32;;;;;;;3.70;3.33;;;6.90;99.90;;;;;;5050260;28;20144;-70
2022/12/28 05:16:05;;;;;;;3.88;3.10;;;7.00;99.90;;;;;;5050916;28;20401;-69
2022/12/28 05:18:31;;;;;;;3.90;3.35;;;6.90;99.90;;;;;;5051465;28;20032;-69
2022/12/28 05:21:02;;;;;;;4.03;3.28;;;6.90;99.90;;;;;;5051502;28;20476;-69
2022/12/28 05:23:29;;;;;;;4.10;3.05;;;7.00;99.90;;;;;;5050192;28;20044;-69
2022/12/28 05:25:55;;;;;;;3.78;3.40;;;7.00;99.90;;;;;;5050600;28;20053;-68
2022/12/28 05:28:21;;;;;;;3.42;3.13;;;7.00;99.90;;;;;;5049891;28;20048;-69
2022/12/28 05:30:47;;;;;;;5.25;4.35;;;7.00;99.90;;;;;;5051065;28;20448;-69
2022/12/28 05:33:12;;;;;;;4.45;3.45;;;7.00;99.90;;;;;;5051070;28;20037;-69
2022/12/28 05:35:38;;;;;;;4.22;3.80;;;7.10;99.90;;;;;;5032320;28;20086;-68
2022/12/28 05:38:03;;;;;;;4.80;3.88;;;7.10;99.90;;;;;;5048696;28;20076;-68
2022/12/28 05:40:29;;;;;;;4.72;3.83;;;7.10;99.90;;;;;;5051114;28;20040;-68
2022/12/28 05:42:54;;;;;;;3.60;3.05;;;7.20;99.90;;;;;;5051024;28;20420;-70
2022/12/28 05:45:20;;;;;;;4.10;3.70;;;7.20;99.90;;;;;;5050513;28;20037;-68
2022/12/28 05:47:46;;;;;;;4.53;4.13;;;7.20;99.90;;;;;;5051046;28;20052;-68
2022/12/28 05:50:11;;;;;;;4.35;3.60;;;7.20;99.90;;;;;;5050694;28;20033;-68
2022/12/28 05:52:37;;;;;;;4.50;3.40;;;7.20;99.90;;;;;;5051056;28;20421;-69
2022/12/28 05:55:03;;;;;;;4.07;3.67;;;7.30;99.90;;;;;;5050329;28;20052;-68
2022/12/28 05:57:28;;;;;;;4.90;4.05;;;7.30;99.90;;;;;;5050710;28;20456;-68
2022/12/28 05:59:54;;;;;;;4.57;3.90;;;7.30;99.90;;;;;;5050631;28;20033;-68
2022/12/28 06:02:19;;;;;;;5.28;4.25;;;7.30;99.90;;;;;;5050602;28;20040;-69
2022/12/28 06:04:45;;;;;;;6.45;4.20;;;7.30;99.90;;;;;;5050036;28;20443;-70
2022/12/28 06:07:10;;;;;;;6.53;4.88;;;7.30;99.90;;;;;;5050894;28;20037;-68
2022/12/28 06:09:36;;;;;;;5.32;3.88;;;7.40;99.90;;;;;;5049638;28;20037;-69
2022/12/28 06:12:03;;;;;;;7.07;4.35;;;7.40;99.90;;;;;;5050723;28;20124;-69
2022/12/28 06:14:29;;;;;;;7.65;4.38;;;7.40;99.90;;;;;;5031977;28;20048;-68
2022/12/28 06:16:54;;;;;;;5.00;4.22;;;7.40;99.90;;;;;;5050647;28;20041;-69
2022/12/28 06:19:20;;;;;;;6.88;4.57;;;7.40;99.90;;;;;;5052570;28;20401;-68
2022/12/28 06:21:46;;;;;;;5.60;4.55;;;7.50;99.90;;;;;;5054624;28;20460;-69
2022/12/28 06:24:12;;;;;;;5.07;4.25;;;7.50;99.90;;;;;;5054077;28;20043;-70
2022/12/28 06:26:39;;;;;;;5.57;5.03;;;7.50;99.90;;;;;;5053637;28;20041;-69
2022/12/28 06:29:05;;;;;;;5.47;4.60;;;7.50;99.90;;;;;;5055227;28;20041;-68
2022/12/28 06:31:37;;;;;;;5.32;4.82;;;7.50;99.90;;;;;;5063380;28;20037;-68
2022/12/28 06:34:05;;;;;;;5.65;4.35;;;7.50;99.90;;;;;;5037619;28;20121;-69
2022/12/28 06:36:49;;;;;;;6.38;4.88;;;7.50;99.90;;;;;;5072193;28;20040;-68
2022/12/28 06:39:15;;;;;;;7.60;5.00;;;7.60;99.90;;;;;;5073161;28;20041;-68
2022/12/28 06:41:41;;;;;;;6.15;4.88;;;7.60;99.90;;;;;;5074260;28;20389;-70
2022/12/28 06:44:12;;;;;;;5.85;5.13;;;7.60;99.90;;;;;;5073405;28;20588;-69
2022/12/28 06:46:38;;;;;;;6.68;5.60;;;7.60;99.90;;;;;;5074344;28;20083;-69
2022/12/28 06:49:03;;;;;;;9.90;5.28;;;7.60;99.90;;;;;;5074376;28;20082;-68
2022/12/28 06:51:37;;;;;;;5.90;4.72;;;7.70;99.90;;;;;;5073972;28;20040;-69
2022/12/28 06:54:03;;;;;;;6.30;4.90;;;7.60;99.90;;;;;;5073474;28;20045;-69
2022/12/28 06:56:30;;;;;;;6.43;5.47;;;7.60;99.90;;;;;;5072944;28;20072;-68
2022/12/28 06:58:56;;;;;;;6.35;4.75;;;7.70;99.90;;;;;;5073736;28;20040;-69
2022/12/28 07:01:34;;;;;;;7.35;5.15;;;7.60;99.90;;;;;;5073750;28;20045;-70
2022/12/28 07:04:01;;;;;;;7.53;5.55;;;7.70;99.90;;;;;;5073352;28;20056;-69
2022/12/28 07:06:28;;;;;;;9.38;5.97;;;7.70;99.90;;;;;;5073501;28;20518;-69
2022/12/28 07:08:59;;;;;;;8.25;5.97;;;7.70;99.90;;;;;;5074140;28;20044;-69
2022/12/28 07:11:25;;;;;;;7.18;5.75;;;7.70;99.90;;;;;;5073733;28;20058;-69
2022/12/28 07:13:50;;;;;;;7.25;5.65;;;7.80;99.90;;;;;;5073147;28;20028;-70
2022/12/28 07:16:19;;;;;;;5.88;5.25;;;7.80;99.90;;;;;;5073849;28;20102;-68
2022/12/28 07:18:45;;;;;;;8.70;6.53;;;7.80;99.90;;;;;;5073655;28;20062;-70
2022/12/28 07:21:16;;;;;;;8.15;6.30;;;7.80;99.90;;;;;;5072209;28;20044;-69
2022/12/28 07:23:42;;;;;;;12.05;6.60;;;7.80;99.90;;;;;;5073093;28;20118;-70
2022/12/28 07:26:10;;;;;;;9.23;6.25;;;7.80;99.90;;;;;;5072203;28;20040;-69
2022/12/28 07:28:37;;;;;;;6.15;5.55;;;7.90;99.90;;;;;;5072025;28;20066;-69
2022/12/28 07:31:08;;;;;;;8.50;6.75;;;7.90;99.90;;;;;;5072678;28;20052;-69
2022/12/28 07:33:35;;;;;;;7.80;6.32;;;7.90;99.90;;;;;;5072052;28;20036;-69
2022/12/28 07:36:02;;;;;;;11.30;7.18;;;8.00;99.90;;;;;;5071218;28;20041;-69
2022/12/28 07:38:28;;;;;;;10.57;6.97;;;7.90;99.90;;;;;;5071798;28;20134;-68
2022/12/28 07:41:03;;;;;;;9.88;7.25;;;8.00;99.90;;;;;;5073329;28;20495;-68
2022/12/28 07:43:29;;;;;;;7.68;6.40;;;8.00;99.90;;;;;;5073083;28;20066;-69
2022/12/28 07:46:04;;;;;;;9.20;7.32;;;8.00;99.90;;;;;;5072394;28;20127;-70
2022/12/28 07:48:32;;;;;;;13.38;7.68;;;8.00;99.90;;;;;;5071796;28;20040;-69
2022/12/28 07:51:04;;;;;;;9.95;7.60;;;8.10;99.90;;;;;;5072940;28;20044;-70
2022/12/28 07:53:29;;;;;;;13.93;7.32;;;8.10;99.90;;;;;;5071715;28;20385;-70
2022/12/28 07:55:56;;;;;;;8.90;7.05;;;8.10;99.90;;;;;;5071273;28;20039;-68
2022/12/28 07:58:22;;;;;;;11.35;7.38;;;8.10;99.90;;;;;;5073202;28;20070;-69
2022/12/28 08:00:49;;;;;;;10.40;7.38;;;8.10;99.90;;;;;;5072568;28;20049;-69
2022/12/28 08:03:15;;;;;;;11.77;6.95;;;8.10;99.90;;;;;;5073095;28;20071;-69
2022/12/28 08:05:41;;;;;;;10.95;7.28;;;8.10;99.90;;;;;;5070704;28;20485;-68
2022/12/28 08:08:06;;;;;;;12.25;7.03;;;8.10;99.90;;;;;;5072765;28;20094;-68
2022/12/28 08:10:32;;;;;;;11.18;7.60;;;8.20;99.90;;;;;;5058479;28;20095;-68
2022/12/28 08:12:59;;;;;;;9.73;7.18;;;8.20;99.90;;;;;;5049241;28;20051;-70
2022/12/28 08:15:25;;;;;;;10.23;7.78;;;8.20;99.90;;;;;;5059869;28;20385;-69
2022/12/28 08:17:52;;;;;;;14.95;7.18;;;8.20;99.90;;;;;;5071167;28;20034;-69
2022/12/28 08:20:18;;;;;;;13.73;7.63;;;8.20;99.90;;;;;;5072489;28;20063;-69
2022/12/28 08:22:43;;;;;;;13.13;8.35;;;8.20;99.90;;;;;;5070796;28;20045;-68
2022/12/28 08:25:09;;;;;;;8.80;7.20;;;8.20;99.90;;;;;;5068592;28;20056;-72
2022/12/28 08:27:35;;;;;;;10.88;6.63;;;8.20;99.90;;;;;;5070579;28;20048;-68
2022/12/28 08:30:00;;;;;;;9.95;6.55;;;8.20;99.90;;;;;;5072111;28;20500;-68
2022/12/28 08:32:26;;;;;;;8.55;6.43;;;8.20;99.90;;;;;;5072137;28;20048;-68
2022/12/28 08:34:51;;;;;;;8.10;6.00;;;8.20;99.90;;;;;;5070400;28;20041;-69
2022/12/28 08:37:17;;;;;;;8.90;5.93;;;8.20;99.90;;;;;;5072090;28;20036;-68
2022/12/28 08:39:42;;;;;;;6.75;5.88;;;8.20;99.90;;;;;;5056899;28;20048;-69
2022/12/28 08:42:08;;;;;;;8.60;5.38;;;8.20;99.90;;;;;;5049735;28;20037;-68
2022/12/28 08:44:33;;;;;;;6.50;5.78;;;8.20;99.90;;;;;;5049861;28;20056;-68
2022/12/28 08:46:59;;;;;;;8.43;5.88;;;8.20;99.90;;;;;;5049437;28;20052;-68
2022/12/28 08:49:24;;;;;;;6.90;5.28;;;8.20;99.90;;;;;;5055398;28;20040;-70
2022/12/28 08:51:50;;;;;;;8.60;5.55;;;8.20;99.90;;;;;;5061461;28;20041;-70
2022/12/28 08:54:16;;;;;;;6.95;5.72;;;8.20;99.90;;;;;;5033142;28;20037;-70
2022/12/28 08:56:44;;;;;;;7.03;5.30;;;8.20;99.90;;;;;;5033912;28;20064;-69
2022/12/28 08:59:13;;;;;;;7.10;5.47;;;8.30;99.90;;;;;;5051691;28;20037;-70
2022/12/28 09:01:39;;;;;;;7.18;5.38;;;8.30;99.90;;;;;;5050319;28;20095;-70
2022/12/28 09:04:06;;;;;;;6.82;5.15;;;8.30;99.90;;;;;;5050742;28;20560;-70
2022/12/28 09:06:35;;;;;;;6.03;5.20;;;8.30;99.90;;;;;;5050621;28;20076;-70
2022/12/28 09:09:02;;;;;;;6.05;5.18;;;8.30;99.90;;;;;;5051635;28;20048;-69
2022/12/28 09:11:28;;;;;;;6.97;5.47;;;8.30;99.90;;;;;;5051506;28;20080;-72
2022/12/28 09:13:53;;;;;;;5.45;4.93;;;8.30;99.90;;;;;;5049450;28;20053;-72
2022/12/28 09:16:24;;;;;;;7.47;5.00;;;8.40;99.90;;;;;;5051600;28;20032;-72
2022/12/28 09:18:53;;;;;;;8.13;5.40;;;8.40;99.90;;;;;;5051627;28;20375;-72
2022/12/28 09:21:20;;;;;;;10.95;5.43;;;8.40;99.90;;;;;;5051519;28;20044;-71
2022/12/28 09:23:46;;;;;;;7.32;5.38;;;8.40;99.90;;;;;;5049360;28;20045;-71
2022/12/28 09:26:14;;;;;;;12.32;5.93;;;8.40;99.90;;;;;;5051260;28;20118;-72
2022/12/28 09:28:54;;;;;;;10.80;5.68;;;8.40;99.90;;;;;;5049948;28;20119;-72
2022/12/28 09:31:22;;;;;;;7.07;5.30;;;8.50;99.90;;;;;;5051300;28;20052;-72
2022/12/28 09:34:00;;;;;;;7.80;5.35;;;8.50;99.90;;;;;;5049278;28;20056;-72
2022/12/28 09:36:35;;;;;;;6.80;5.25;;;8.50;99.90;;;;;;5049742;28;20677;-73
2022/12/28 09:39:12;;;;;;;7.43;5.55;;;8.50;99.90;;;;;;5049763;28;20041;-72
2022/12/28 09:42:00;;;;;;;6.63;5.75;;;8.50;99.90;;;;;;5049525;28;20049;-73
2022/12/28 09:44:32;;;;;;;7.05;5.30;;;8.50;99.90;;;;;;5048995;28;20049;-72
2022/12/28 09:47:06;;;;;;;7.37;5.63;;;8.50;99.90;;;;;;5050387;28;20131;-73
2022/12/28 09:49:43;;;;;;;9.80;5.10;;;8.50;99.90;;;;;;5051561;28;20283;-74
2022/12/28 09:52:35;;;;;;;10.30;6.30;;;8.60;99.90;;;;;;5057488;28;20044;-73
2022/12/28 09:55:14;;;;;;;7.55;5.75;;;8.60;99.90;;;;;;5050061;28;20033;-73
2022/12/28 09:57:53;;;;;;;7.00;5.50;;;8.60;99.90;;;;;;5049426;28;20643;-73
2022/12/28 10:00:24;;;;;;;8.30;6.60;;;8.60;99.90;;;;;;5049470;28;20071;-73
2022/12/28 10:02:59;;;;;;;11.77;6.30;;;8.60;99.90;;;;;;5047704;28;20037;-73
2022/12/28 10:05:25;;;;;;;8.65;6.55;;;8.60;99.90;;;;;;5048200;28;20041;-74
2022/12/28 10:07:53;;;;;;;9.57;5.88;;;8.60;99.90;;;;;;5048872;28;20416;-73
2022/12/28 10:10:21;;;;;;;8.55;6.00;;;8.60;99.90;;;;;;5055938;28;20040;-72
2022/12/28 10:12:47;;;;;;;9.13;6.43;;;8.70;99.90;;;;;;5062240;28;20083;-73
2022/12/28 10:15:14;;;;;;;7.05;5.70;;;8.70;99.90;;;;;;5070132;28;20044;-73
2022/12/28 10:17:41;;;;;;;9.30;5.90;;;8.70;99.90;;;;;;5070612;28;20044;-70
2022/12/28 10:20:15;;;;;;;7.68;5.97;;;8.80;99.90;;;;;;5070604;28;20033;-70
2022/12/28 10:22:42;;;;;;;7.15;5.43;;;8.90;99.90;;;;;;5069260;28;20086;-70
2022/12/28 10:25:23;;;;;;;9.02;5.30;;;8.90;99.90;;;;;;5069575;28;20098;-67
2022/12/28 10:27:49;;;;;;;6.53;5.07;;;8.90;99.90;;;;;;5069440;28;20076;-69
2022/12/28 10:30:25;;;;;;;6.53;5.38;;;9.00;99.90;;;;;;5070491;28;20029;-68
2022/12/28 10:32:57;;;;;;;9.45;5.50;;;9.00;99.90;;;;;;5070820;28;20075;-70
2022/12/28 10:35:39;;;;;;;7.93;4.68;;;9.00;99.90;;;;;;5069808;28;20181;-69
2022/12/28 10:38:06;;;;;;;;;;;9.00;99.90;;;;;;5066795;28;20036;-68
2022/12/28 10:40:36;;;;;;;4.90;4.20;;;9.00;99.90;;;;;;5060916;28;19999;-68
2022/12/28 10:43:02;;;;;;;5.75;4.75;;;9.00;99.90;;;;;;5060511;28;20044;-68
2022/12/28 10:45:44;;;;;;;5.55;4.55;;;9.00;99.90;;;;;;5058154;28;20049;-69
2022/12/28 10:48:17;;;;;;;4.68;3.97;;;9.00;99.90;;;;;;5059056;28;20135;-68
2022/12/28 10:51:10;;;;;;;6.25;4.05;;;9.10;99.90;;;;;;5054570;28;20052;-69
2022/12/28 10:53:38;;;;;;;7.38;4.68;;;9.10;99.90;;;;;;5059376;28;20068;-68
2022/12/28 10:56:13;;;;;;;5.45;4.22;;;9.00;99.90;;;;;;5060613;28;20104;-68
2022/12/28 10:58:40;;;;;;;6.57;4.90;;;9.10;99.90;;;;;;5070076;28;20047;-68
2022/12/28 11:01:11;;;;;;;5.43;4.30;;;9.10;99.90;;;;;;5069016;28;20040;-69
2022/12/28 11:03:39;;;;;;;5.28;4.35;;;9.10;99.90;;;;;;5059266;28;20127;-68
2022/12/28 11:06:19;;;;;;;4.75;3.60;;;9.10;99.90;;;;;;5051094;28;20043;-68
2022/12/28 11:09:25;;;;;;;6.93;4.53;;;9.00;99.90;;;;;;5054048;28;20052;-69
2022/12/28 11:11:53;;;;;;;4.35;3.70;;;9.10;99.90;;;;;;5050098;28;20053;-68
2022/12/28 11:14:32;;;;;;;5.57;4.18;;;9.10;99.90;;;;;;5053121;28;20072;-70
2022/12/28 11:17:18;;;;;;;5.40;3.78;;;9.10;99.90;;;;;;5052410;28;20041;-70
2022/12/28 11:19:44;;;;;;;5.13;3.97;;;9.10;99.90;;;;;;5053836;28;20112;-70
2022/12/28 11:22:11;;;;;;;4.47;3.45;;;9.10;99.90;;;;;;5053544;28;20091;-70
2022/12/28 11:24:39;;;;;;;9.40;4.32;;;9.10;99.90;;;;;;5052998;28;20110;-69
2022/12/28 11:27:07;;;;;;;12.38;4.20;;;9.10;99.90;;;;;;5053463;28;20577;-71
2022/12/28 11:29:33;;;;;;;8.00;3.88;;;9.10;99.90;;;;;;5052452;28;20098;-69
2022/12/28 11:32:03;;;;;;;5.10;4.05;;;9.10;99.90;;;;;;5053245;28;20037;-69
2022/12/28 11:34:30;;;;;;;4.65;4.03;;;9.10;99.90;;;;;;5052728;28;20378;-69
2022/12/28 11:36:56;;;;;;;10.45;4.47;;;9.10;99.90;;;;;;5053341;28;20600;-69
2022/12/28 11:39:25;;;;;;;8.52;4.32;;;9.10;99.90;;;;;;5053516;28;20079;-69
2022/12/28 11:41:51;;;;;;;11.60;4.43;;;9.20;99.90;;;;;;5053166;28;20040;-69
2022/12/28 11:44:27;;;;;;;6.78;4.43;;;9.20;99.90;;;;;;5051274;28;20048;-69
2022/12/28 11:47:18;;;;;;;17.90;5.35;;;9.20;99.90;;;;;;5053321;28;20055;-72
2022/12/28 11:49:45;;;;;;;9.23;4.55;;;9.20;99.90;;;;;;5048952;28;20044;-69
2022/12/28 11:52:16;;;;;;;11.70;4.15;;;9.20;99.90;;;;;;5065883;28;20041;-69
2022/12/28 11:54:54;;;;;;;8.98;3.72;;;9.20;99.90;;;;;;5056965;28;20693;-69
2022/12/28 11:57:40;;;;;;;5.57;3.70;;;9.10;99.90;;;;;;5063481;28;20028;-69
2022/12/28 12:00:18;;;;;;;11.63;3.92;;;9.20;99.90;;;;;;5071692;28;20123;-69
2022/12/28 12:02:56;;;;;;;5.72;3.22;;;9.20;99.90;;;;;;5073101;28;20124;-69
2022/12/28 12:05:37;;;;;;;5.75;3.40;;;9.20;99.90;;;;;;5056380;28;20041;-69
2022/12/28 12:08:12;;;;;;;5.25;3.35;;;9.20;99.90;;;;;;5032902;28;20073;-69
2022/12/28 12:10:40;;;;;;;5.63;3.75;;;9.20;99.90;;;;;;5031433;28;20055;-69
2022/12/28 12:13:24;;;;;;;8.73;4.00;;;9.10;99.90;;;;;;5032901;28;20041;-69
2022/12/28 12:15:53;;;;;;;3.53;3.20;;;9.20;99.90;;;;;;5032051;28;20105;-69
2022/12/28 12:18:24;;;;;;;3.00;2.80;;;9.20;99.90;;;;;;5032650;28;20037;-69
2022/12/28 12:21:05;;;;;;;6.85;3.40;;;9.10;99.90;;;;;;5032794;28;20041;-69
2022/12/28 12:23:54;;;;;;;5.25;3.28;;;9.10;99.90;;;;;;5032540;28;20052;-69
2022/12/28 12:26:32;;;;;;;6.38;3.42;;;9.10;99.90;;;;;;5032771;28;20075;-70
2022/12/28 12:29:03;;;;;;;7.85;3.50;;;9.20;99.90;;;;;;5032610;28;20089;-70
2022/12/28 12:31:41;;;;;;;5.90;3.00;;;9.10;99.90;;;;;;5032415;28;20052;-69
2022/12/28 12:34:21;;;;;;;6.65;3.40;;;9.10;99.90;;;;;;5014308;28;20049;-69
2022/12/28 12:36:55;;;;;;;6.40;3.30;;;9.10;99.90;;;;;;5034330;28;20068;-70
2022/12/28 12:39:22;;;;;;;4.80;2.80;;;9.10;99.90;;;;;;5062750;28;20028;-69
2022/12/28 12:41:50;;;;;;;3.13;2.83;;;9.10;99.90;;;;;;5058814;28;20528;-70
2022/12/28 12:44:42;;;;;;;2.97;2.70;;;9.10;99.90;;;;;;5054887;28;20564;-69
2022/12/28 12:47:21;;;;;;;3.00;2.70;;;9.10;99.90;;;;;;5038010;28;20049;-69
2022/12/28 12:50:11;;;;;;;2.40;2.20;;;9.10;99.90;;;;;;5063470;28;20397;-70
2022/12/28 12:53:04;;;;;;;2.47;2.30;;;9.10;99.90;;;;;;5070583;28;20044;-69
2022/12/28 12:55:49;;;;;;;2.83;2.40;;;9.10;99.90;;;;;;5071434;28;20044;-70
2022/12/28 12:58:30;;;;;;;6.88;2.80;;;9.10;99.90;;;;;;5071743;28;20282;-70
2022/12/28 13:01:40;;;;;;;5.85;2.50;;;9.10;99.90;;;;;;5053219;28;20123;-70
2022/12/28 13:04:12;;;;;;;5.20;2.42;;;9.10;99.90;;;;;;4992145;28;20045;-70
2022/12/28 13:06:38;;;;;;;3.10;2.30;;;9.10;99.90;;;;;;4993121;28;20888;-70
2022/12/28 13:09:06;;;;;;;2.50;2.30;;;9.10;99.90;;;;;;5009349;28;20062;-69
2022/12/28 13:11:35;;;;;;;2.10;2.00;;;9.10;99.90;;;;;;5009276;28;20136;-70
2022/12/28 13:14:01;;;;;;;2.40;2.20;;;9.10;99.90;;;;;;5008619;28;20203;-70
2022/12/28 13:16:29;;;;;;;3.53;2.13;;;9.10;99.90;;;;;;5009285;28;20056;-70
2022/12/28 13:19:02;;;;;;;2.42;2.22;;;9.10;99.90;;;;;;4992925;28;20048;-70
2022/12/28 13:21:49;;;;;;;2.50;2.30;;;9.10;99.90;;;;;;4992960;28;20473;-70
2022/12/28 13:24:26;;;;;;;1.98;1.80;;;9.10;99.90;;;;;;5008057;28;20056;-71
2022/12/28 13:26:54;;;;;;;1.88;1.77;;;9.10;99.90;;;;;;5008836;28;20046;-69
2022/12/28 13:29:22;;;;;;;1.92;1.83;;;9.10;99.90;;;;;;5008448;28;20049;-70
2022/12/28 13:31:49;;;;;;;2.92;2.10;;;9.10;99.90;;;;;;4992393;28;20414;-69
2022/12/28 13:34:24;;;;;;;2.28;1.88;;;9.10;99.90;;;;;;5006225;28;20497;-70
2022/12/28 13:36:53;;;;;;;1.88;1.77;;;9.20;99.90;;;;;;5033088;28;20033;-70
2022/12/28 13:39:19;;;;;;;2.22;2.08;;;9.10;99.90;;;;;;5050184;28;20067;-70
2022/12/28 13:42:10;;;;;;;2.28;2.00;;;9.20;99.90;;;;;;5049504;28;20045;-72
2022/12/28 13:44:44;;;;;;;2.10;2.00;;;9.20;99.90;;;;;;5048838;28;20052;-72